72°F Temp
57°F Dewpoint
61% Humidity
Temperature
15 MPH
24 KM/H
13 KTS
300°
West North
West

Wind Speed
Clear
Conditions
Pressure 1013.92 (hPa) - 29.94 (in)
Visibility 9.9 (mi) - 16.0 (km)

Current Conditions
KSJC
Location 9(mi)
Metar :KSJC 050053Z 30013KT 10SM CLR 22/14 A2994 RMK AO2 SLP137 T02220139
Wed 4th August 16:53 pm

Airport
  Metar Aviation API Data Provided by https://www.checkwx.com/ PHP scripts by weather34.com ©2021